Time;durP1;ratioP1;P1;durP2;ratioP2;P2;SDS_P1;SDS_P2;PMS_P1;PMS_P2;Temp;Humidity;BMP_temperature;BMP_pressure;BME280_temperature;BME280_humidity;BME280_pressure;Samples;Min_cycle;Max_cycle;Signal;HPM_P1;HPM_P2
2021/10/16 00:02:19;;;;;;;15.18;2.95;;;;;;;;;;5048641;28;20189;-83
2021/10/16 00:04:52;;;;;;;17.50;4.57;;;;;;;;;;5044825;28;20049;-83
2021/10/16 00:07:23;;;;;;;10.07;2.85;;;;;;;;;;5042489;28;20394;-83
2021/10/16 00:09:50;;;;;;;13.43;3.75;;;;;;;;;;5043019;28;20069;-83
2021/10/16 00:12:19;;;;;;;12.77;3.65;;;;;;;;;;5042078;28;20053;-83
2021/10/16 00:14:49;;;;;;;18.77;4.18;;;;;;;;;;5045756;28;20044;-83
2021/10/16 00:17:18;;;;;;;14.25;4.00;;;;;;;;;;5043936;28;20056;-83
2021/10/16 00:19:54;;;;;;;13.52;3.45;;;;;;;;;;5046990;28;20393;-83
2021/10/16 00:22:31;;;;;;;17.60;6.10;;;;;;;;;;5046647;28;20071;-83
2021/10/16 00:25:04;;;;;;;17.38;4.40;;;;;;;;;;5046642;28;20056;-83
2021/10/16 00:27:31;;;;;;;21.73;4.75;;;;;;;;;;5046477;28;20080;-83
2021/10/16 00:29:57;;;;;;;17.13;3.28;;;;;;;;;;5048492;28;20062;-83
2021/10/16 00:32:27;;;;;;;8.38;2.95;;;;;;;;;;5043084;28;20057;-83
2021/10/16 00:34:57;;;;;;;23.65;3.90;;;;;;;;;;5047954;28;20050;-83
2021/10/16 00:37:27;;;;;;;16.00;4.57;;;;;;;;;;5040788;28;20122;-83
2021/10/16 00:39:56;;;;;;;16.90;3.67;;;;;;;;;;5048489;28;20084;-83
2021/10/16 00:42:42;;;;;;;31.00;4.72;;;;;;;;;;5046297;28;20106;-84
2021/10/16 00:45:11;;;;;;;17.60;3.78;;;;;;;;;;5042461;28;20398;-83
2021/10/16 00:47:38;;;;;;;15.20;4.22;;;;;;;;;;5035502;28;20088;-83
2021/10/16 00:50:08;;;;;;;10.38;3.55;;;;;;;;;;5035524;28;20058;-83
2021/10/16 00:52:42;;;;;;;27.77;5.35;;;;;;;;;;5035425;28;20113;-83
2021/10/16 00:55:10;;;;;;;23.67;4.10;;;;;;;;;;5037156;28;20053;-83
2021/10/16 00:57:37;;;;;;;15.48;3.92;;;;;;;;;;5037963;28;20570;-83
2021/10/16 01:00:08;;;;;;;16.10;3.92;;;;;;;;;;5037197;28;20064;-83
2021/10/16 01:02:38;;;;;;;13.77;3.70;;;;;;;;;;5037574;28;20168;-83
2021/10/16 01:05:06;;;;;;;8.95;3.53;;;;;;;;;;5037162;28;20073;-83
2021/10/16 01:07:33;;;;;;;15.32;3.65;;;;;;;;;;5036109;28;20083;-83
2021/10/16 01:10:29;;;;;;;14.55;3.70;;;;;;;;;;5036254;28;20111;-83
2021/10/16 01:12:57;;;;;;;19.10;3.70;;;;;;;;;;5014058;28;20426;-83
2021/10/16 01:15:27;;;;;;;14.65;3.95;;;;;;;;;;5036214;28;20061;-83
2021/10/16 01:17:56;;;;;;;14.50;4.13;;;;;;;;;;5037416;28;20059;-83
2021/10/16 01:20:24;;;;;;;14.65;3.95;;;;;;;;;;5040218;28;20045;-83
2021/10/16 01:22:52;;;;;;;10.15;4.32;;;;;;;;;;5040294;28;20088;-83
2021/10/16 01:25:27;;;;;;;14.93;4.22;;;;;;;;;;5038408;28;20289;-83
2021/10/16 01:27:57;;;;;;;10.65;4.47;;;;;;;;;;5039237;28;20058;-83
2021/10/16 01:30:26;;;;;;;16.85;4.40;;;;;;;;;;5053816;28;20135;-83
2021/10/16 01:32:52;;;;;;;14.52;3.92;;;;;;;;;;5058929;28;20053;-83
2021/10/16 01:35:19;;;;;;;13.65;4.38;;;;;;;;;;5058785;28;20080;-83
2021/10/16 01:37:49;;;;;;;18.20;5.32;;;;;;;;;;5059277;28;20060;-83
2021/10/16 01:40:15;;;;;;;16.95;4.45;;;;;;;;;;5060084;28;20413;-83
2021/10/16 01:42:43;;;;;;;17.38;5.28;;;;;;;;;;5053734;28;20053;-83
2021/10/16 01:45:14;;;;;;;11.65;3.78;;;;;;;;;;5048902;28;20050;-83
2021/10/16 01:47:49;;;;;;;18.73;5.13;;;;;;;;;;5053418;28;20056;-83
2021/10/16 01:50:16;;;;;;;17.40;4.85;;;;;;;;;;5053287;28;20068;-84
2021/10/16 01:52:43;;;;;;;16.83;5.35;;;;;;;;;;5053949;28;20171;-83
2021/10/16 01:55:11;;;;;;;21.42;5.53;;;;;;;;;;5053421;28;20053;-83
2021/10/16 01:57:41;;;;;;;16.10;4.93;;;;;;;;;;5053114;28;20037;-83
2021/10/16 02:00:09;;;;;;;21.67;5.30;;;;;;;;;;5052258;28;20048;-83
2021/10/16 02:02:36;;;;;;;15.48;5.10;;;;;;;;;;5054631;28;20045;-84
2021/10/16 02:05:07;;;;;;;17.90;6.15;;;;;;;;;;5053105;28;20065;-84
2021/10/16 02:07:39;;;;;;;18.70;6.22;;;;;;;;;;5042578;28;20156;-84
2021/10/16 02:10:06;;;;;;;16.45;5.53;;;;;;;;;;5042026;28;20097;-84
2021/10/16 02:12:36;;;;;;;20.20;5.90;;;;;;;;;;5042026;28;20088;-84
2021/10/16 02:15:02;;;;;;;23.80;5.93;;;;;;;;;;5041567;28;20061;-84
2021/10/16 02:17:29;;;;;;;18.60;5.72;;;;;;;;;;5040744;28;20054;-84
2021/10/16 02:19:56;;;;;;;19.17;5.57;;;;;;;;;;5056644;28;20063;-84
2021/10/16 02:22:22;;;;;;;19.40;5.90;;;;;;;;;;5057778;28;20420;-83
2021/10/16 02:24:49;;;;;;;13.15;4.97;;;;;;;;;;5060546;28;20402;-83
2021/10/16 02:27:16;;;;;;;24.40;5.75;;;;;;;;;;5060004;28;20069;-83
2021/10/16 02:29:43;;;;;;;18.88;5.18;;;;;;;;;;5057250;28;20517;-84
2021/10/16 02:32:10;;;;;;;20.77;5.72;;;;;;;;;;5056931;28;20124;-84
2021/10/16 02:34:37;;;;;;;15.27;6.15;;;;;;;;;;5058689;28;20077;-84
2021/10/16 02:37:05;;;;;;;20.63;5.45;;;;;;;;;;5058595;28;20143;-84
2021/10/16 02:39:32;;;;;;;12.07;5.03;;;;;;;;;;5057387;28;20057;-84
2021/10/16 02:41:59;;;;;;;18.02;5.45;;;;;;;;;;5060613;28;20049;-83
2021/10/16 02:44:30;;;;;;;16.67;5.72;;;;;;;;;;5059040;28;20052;-83
2021/10/16 02:46:57;;;;;;;18.52;4.93;;;;;;;;;;5063256;28;20051;-83
2021/10/16 02:49:24;;;;;;;21.85;5.72;;;;;;;;;;5075415;28;20108;-83
2021/10/16 02:51:53;;;;;;;18.13;5.07;;;;;;;;;;5074836;28;20048;-83
2021/10/16 02:54:20;;;;;;;17.95;5.07;;;;;;;;;;5062063;28;20095;-83
2021/10/16 02:56:49;;;;;;;17.58;6.22;;;;;;;;;;5064520;28;20511;-83
2021/10/16 02:59:16;;;;;;;18.63;5.60;;;;;;;;;;5067928;28;20044;-84
2021/10/16 03:01:45;;;;;;;22.85;6.65;;;;;;;;;;5074284;28;20060;-83
2021/10/16 03:04:12;;;;;;;24.33;6.07;;;;;;;;;;5068694;28;20057;-83
2021/10/16 03:06:39;;;;;;;15.00;4.70;;;;;;;;;;5061285;28;20408;-83
2021/10/16 03:09:06;;;;;;;16.90;6.03;;;;;;;;;;5058685;28;20275;-83
2021/10/16 03:11:32;;;;;;;15.20;5.40;;;;;;;;;;5039619;28;20079;-83
2021/10/16 03:14:00;;;;;;;22.50;4.90;;;;;;;;;;5051399;28;20371;-83
2021/10/16 03:16:27;;;;;;;11.23;4.90;;;;;;;;;;5060578;28;20057;-83
2021/10/16 03:18:53;;;;;;;19.33;5.25;;;;;;;;;;5060106;28;20049;-84
2021/10/16 03:21:21;;;;;;;9.23;4.55;;;;;;;;;;5056105;28;20055;-84
2021/10/16 03:23:47;;;;;;;14.95;4.47;;;;;;;;;;5053654;28;20049;-84
2021/10/16 03:26:14;;;;;;;15.85;5.20;;;;;;;;;;5062849;28;20377;-84
2021/10/16 03:28:41;;;;;;;22.77;5.28;;;;;;;;;;5062280;28;20060;-84
2021/10/16 03:31:09;;;;;;;12.75;4.70;;;;;;;;;;5061059;28;20053;-84
2021/10/16 03:33:42;;;;;;;13.80;4.50;;;;;;;;;;5060085;28;20060;-84
2021/10/16 03:36:09;;;;;;;17.05;4.70;;;;;;;;;;5047944;28;20104;-84
2021/10/16 03:38:35;;;;;;;18.75;4.90;;;;;;;;;;5040141;28;20053;-84
2021/10/16 03:41:02;;;;;;;15.18;4.43;;;;;;;;;;5037515;28;20084;-84
2021/10/16 03:43:29;;;;;;;13.55;4.53;;;;;;;;;;5038808;28;20143;-84
2021/10/16 03:45:56;;;;;;;18.10;5.32;;;;;;;;;;5039191;28;20069;-84
2021/10/16 03:48:26;;;;;;;9.38;4.50;;;;;;;;;;5039691;28;20057;-84
2021/10/16 03:50:52;;;;;;;13.40;5.00;;;;;;;;;;5039499;28;20058;-84
2021/10/16 03:53:19;;;;;;;13.45;4.85;;;;;;;;;;5039452;28;20053;-84
2021/10/16 03:56:11;;;;;;;13.38;4.95;;;;;;;;;;5038873;28;20053;-84
2021/10/16 03:58:38;;;;;;;9.05;4.30;;;;;;;;;;5039332;28;20053;-84
2021/10/16 04:01:05;;;;;;;12.77;5.05;;;;;;;;;;5038180;28;20236;-84
2021/10/16 04:03:38;;;;;;;14.18;4.88;;;;;;;;;;5038814;28;20061;-84
2021/10/16 04:06:04;;;;;;;9.68;4.68;;;;;;;;;;5047065;28;20087;-84
2021/10/16 04:08:31;;;;;;;14.40;4.65;;;;;;;;;;5059026;28;20068;-84
2021/10/16 04:10:58;;;;;;;16.40;5.15;;;;;;;;;;5050775;28;20256;-84
2021/10/16 04:13:28;;;;;;;11.07;4.43;;;;;;;;;;5047362;28;20056;-84
2021/10/16 04:15:55;;;;;;;9.82;4.68;;;;;;;;;;5040740;28;20059;-84
2021/10/16 04:18:21;;;;;;;9.07;4.10;;;;;;;;;;5045347;28;20065;-84
2021/10/16 04:20:51;;;;;;;9.05;3.90;;;;;;;;;;5051826;28;20078;-84
2021/10/16 04:23:18;;;;;;;10.57;4.45;;;;;;;;;;5051114;28;20171;-84
2021/10/16 04:25:48;;;;;;;12.73;4.18;;;;;;;;;;5046138;28;20049;-84
2021/10/16 04:28:15;;;;;;;17.13;4.88;;;;;;;;;;5045931;28;20441;-84
2021/10/16 04:30:42;;;;;;;16.90;4.90;;;;;;;;;;5043276;28;20412;-85
2021/10/16 04:33:09;;;;;;;12.30;5.05;;;;;;;;;;5042732;28;20111;-85
2021/10/16 04:35:40;;;;;;;10.30;4.05;;;;;;;;;;5042107;28;20053;-85
2021/10/16 04:38:06;;;;;;;18.35;6.10;;;;;;;;;;5035943;28;20057;-85
2021/10/16 04:40:33;;;;;;;14.35;4.80;;;;;;;;;;5035750;28;20370;-85
2021/10/16 04:43:08;;;;;;;9.30;4.38;;;;;;;;;;5035389;28;20050;-86
2021/10/16 04:45:35;;;;;;;17.52;4.90;;;;;;;;;;5035530;28;20060;-85
2021/10/16 04:48:04;;;;;;;14.50;5.43;;;;;;;;;;5050665;28;20444;-85
2021/10/16 04:50:34;;;;;;;16.05;5.13;;;;;;;;;;5036482;28;20123;-86
2021/10/16 04:53:00;;;;;;;10.45;4.82;;;;;;;;;;5035626;28;20057;-86
2021/10/16 04:55:27;;;;;;;14.23;5.43;;;;;;;;;;5037780;28;20080;-85
2021/10/16 04:57:55;;;;;;;15.80;5.47;;;;;;;;;;5040494;28;20200;-86
2021/10/16 05:00:22;;;;;;;13.23;5.18;;;;;;;;;;5038352;28;20197;-85
2021/10/16 05:02:51;;;;;;;12.18;4.93;;;;;;;;;;5037412;28;20064;-85
2021/10/16 05:05:27;;;;;;;15.40;4.70;;;;;;;;;;5039127;28;20077;-86
2021/10/16 05:07:54;;;;;;;14.88;5.57;;;;;;;;;;5038312;28;20107;-85
2021/10/16 05:10:20;;;;;;;17.25;6.55;;;;;;;;;;5039052;28;20124;-85
2021/10/16 05:12:50;;;;;;;16.38;5.38;;;;;;;;;;5057103;28;20067;-86
2021/10/16 05:15:17;;;;;;;9.18;3.88;;;;;;;;;;5057835;28;20048;-85
2021/10/16 05:17:46;;;;;;;17.00;4.63;;;;;;;;;;5059936;28;20311;-85
2021/10/16 05:20:31;;;;;;;16.98;4.38;;;;;;;;;;5058786;28;20053;-85
2021/10/16 05:22:58;;;;;;;14.20;4.57;;;;;;;;;;5061877;28;20139;-85
2021/10/16 05:25:24;;;;;;;18.15;4.63;;;;;;;;;;5058833;28;20061;-85
2021/10/16 05:27:54;;;;;;;12.68;4.90;;;;;;;;;;5057788;28;20429;-85
2021/10/16 05:30:25;;;;;;;15.70;5.47;;;;;;;;;;5051648;28;20107;-85
2021/10/16 05:32:52;;;;;;;14.48;5.55;;;;;;;;;;5036439;28;20128;-86
2021/10/16 05:35:19;;;;;;;11.50;4.70;;;;;;;;;;5036005;28;20068;-84
2021/10/16 05:37:46;;;;;;;15.55;4.38;;;;;;;;;;5038028;28;20057;-84
2021/10/16 05:40:13;;;;;;;14.65;4.70;;;;;;;;;;5037768;28;20084;-84
2021/10/16 05:42:43;;;;;;;14.02;4.32;;;;;;;;;;5038600;28;20120;-85
2021/10/16 05:45:10;;;;;;;19.85;5.40;;;;;;;;;;5038006;28;20267;-85
2021/10/16 05:47:37;;;;;;;17.33;4.10;;;;;;;;;;5039595;28;20068;-84
2021/10/16 05:50:11;;;;;;;9.38;4.68;;;;;;;;;;5050936;28;20054;-85
2021/10/16 05:52:43;;;;;;;8.77;4.30;;;;;;;;;;5052567;28;20158;-84
2021/10/16 05:55:12;;;;;;;10.07;4.70;;;;;;;;;;5042520;28;20054;-84
2021/10/16 05:57:44;;;;;;;11.38;4.53;;;;;;;;;;5037901;28;20095;-84
2021/10/16 06:00:13;;;;;;;10.88;5.22;;;;;;;;;;5037672;28;20111;-84
2021/10/16 06:02:45;;;;;;;15.82;4.70;;;;;;;;;;5048620;28;20152;-84
2021/10/16 06:05:12;;;;;;;14.88;5.05;;;;;;;;;;5045959;28;20109;-84
2021/10/16 06:07:39;;;;;;;12.75;4.60;;;;;;;;;;5052196;28;20057;-84
2021/10/16 06:10:16;;;;;;;17.58;5.22;;;;;;;;;;5051049;28;20049;-86
2021/10/16 06:12:49;;;;;;;11.02;4.57;;;;;;;;;;5066336;28;20065;-84
2021/10/16 06:15:21;;;;;;;16.23;5.20;;;;;;;;;;5071242;28;20076;-85
2021/10/16 06:17:48;;;;;;;13.82;4.20;;;;;;;;;;5053841;28;20072;-85
2021/10/16 06:20:19;;;;;;;17.30;5.15;;;;;;;;;;5047260;28;20049;-84
2021/10/16 06:22:58;;;;;;;15.25;4.88;;;;;;;;;;5046740;28;20379;-85
2021/10/16 06:25:34;;;;;;;12.55;4.75;;;;;;;;;;5051247;28;20049;-85
2021/10/16 06:28:17;;;;;;;12.70;4.80;;;;;;;;;;5050170;28;20054;-84
2021/10/16 06:30:48;;;;;;;12.15;4.50;;;;;;;;;;5042088;28;20341;-84
2021/10/16 06:33:24;;;;;;;12.52;5.03;;;;;;;;;;5040204;28;20188;-84
2021/10/16 06:36:09;;;;;;;10.02;4.47;;;;;;;;;;5037750;28;20277;-84
2021/10/16 06:39:02;;;;;;;20.20;4.97;;;;;;;;;;5038360;28;20057;-84
2021/10/16 06:41:32;;;;;;;16.52;4.32;;;;;;;;;;5046844;28;20192;-83
2021/10/16 06:44:29;;;;;;;14.30;4.07;;;;;;;;;;5047648;28;20099;-83
2021/10/16 06:47:01;;;;;;;13.93;5.10;;;;;;;;;;5042830;28;20049;-83
2021/10/16 06:49:30;;;;;;;11.18;4.10;;;;;;;;;;5038306;28;20061;-83
2021/10/16 06:52:10;;;;;;;;;;;;;;;;;;5037859;28;20440;-84
2021/10/16 06:54:59;;;;;;;14.32;4.40;;;;;;;;;;5034481;28;19928;-84
2021/10/16 06:57:38;;;;;;;;;;;;;;;;;;;;;
2021/10/16 07:00:44;;;;;;;13.50;5.13;;;;;;;;;;5035505;28;20060;-84
2021/10/16 07:03:48;;;;;;;13.80;4.80;;;;;;;;;;5040260;28;20059;-85
2021/10/16 07:06:49;;;;;;;;;;;;;;;;;;;;;
2021/10/16 07:12:19;;;;;;;20.00;4.70;;;;;;;;;;5050939;28;20312;-85
2021/10/16 07:14:58;;;;;;;12.10;4.15;;;;;;;;;;5050635;28;20356;-85
2021/10/16 07:17:36;;;;;;;11.93;3.97;;;;;;;;;;5049477;28;20127;-84
2021/10/16 07:30:19;;;;;;;15.60;3.00;;;;;;;;;;5038419;28;20414;-85
2021/10/16 07:36:42;;;;;;;16.10;4.10;;;;;;;;;;5034431;28;20122;-84
2021/10/16 07:39:28;;;;;;;9.00;3.30;;;;;;;;;;5035382;28;20079;-85
2021/10/16 07:42:22;;;;;;;;;;;;;;;;;;;;;
2021/10/16 07:45:11;;;;;;;11.02;3.17;;;;;;;;;;5051682;28;20285;-85
2021/10/16 07:48:00;;;;;;;9.95;2.95;;;;;;;;;;5041067;28;20549;-85
2021/10/16 07:50:53;;;;;;;10.30;3.20;;;;;;;;;;5049231;28;20083;-85
2021/10/16 07:54:00;;;;;;;8.77;3.13;;;;;;;;;;5038367;28;20068;-85
2021/10/16 07:57:01;;;;;;;20.95;3.90;;;;;;;;;;4939556;29;20051;-85
2021/10/16 07:59:57;;;;;;;7.57;2.72;;;;;;;;;;4940222;29;20094;-85
2021/10/16 08:02:45;;;;;;;9.40;3.00;;;;;;;;;;4952793;28;20058;-85
2021/10/16 08:09:01;;;;;;;8.43;2.63;;;;;;;;;;4953734;29;20058;-85
2021/10/16 08:12:22;;;;;;;8.15;2.63;;;;;;;;;;4916017;29;20063;-85
2021/10/16 08:15:18;;;;;;;10.70;2.22;;;;;;;;;;4936591;29;20559;-85
2021/10/16 08:18:00;;;;;;;11.38;2.55;;;;;;;;;;4950104;29;20055;-85
2021/10/16 08:20:50;;;;;;;9.65;2.50;;;;;;;;;;4948984;29;20047;-85
2021/10/16 08:24:03;;;;;;;7.35;2.67;;;;;;;;;;4939474;29;20093;-84
2021/10/16 08:30:12;;;;;;;10.57;2.83;;;;;;;;;;4900856;29;20055;-85
2021/10/16 08:33:11;;;;;;;;;;;;;;;;;;;;;
2021/10/16 08:39:39;;;;;;;8.90;2.00;;;;;;;;;;4972314;28;20082;-85
2021/10/16 08:42:48;;;;;;;10.77;2.33;;;;;;;;;;4932657;29;20122;-85
2021/10/16 08:55:50;;;;;;;8.68;2.20;;;;;;;;;;4929559;29;20071;-84
2021/10/16 09:02:23;;;;;;;10.80;2.42;;;;;;;;;;4969132;28;20140;-84
2021/10/16 09:05:20;;;;;;;4.80;2.20;;;;;;;;;;4972061;28;20058;-84
2021/10/16 09:08:04;;;;;;;11.93;2.90;;;;;;;;;;4949282;28;20597;-84
2021/10/16 09:11:22;;;;;;;8.77;2.00;;;;;;;;;;4973353;28;20113;-85
2021/10/16 09:17:44;;;;;;;11.70;2.28;;;;;;;;;;4970895;28;20038;-84
2021/10/16 09:21:04;;;;;;;;;;;;;;;;;;;;;
2021/10/16 09:24:10;;;;;;;;;;;;;;;;;;;;;
2021/10/16 09:27:06;;;;;;;12.00;3.03;;;;;;;;;;5068229;28;20105;-84
2021/10/16 09:37:03;;;;;;;;;;;;;;;;;;;;;
2021/10/16 09:40:11;;;;;;;12.85;1.83;;;;;;;;;;4859968;29;20053;-85
2021/10/16 09:43:02;;;;;;;7.75;2.22;;;;;;;;;;4846270;29;20053;-85
2021/10/16 09:46:23;;;;;;;7.03;2.15;;;;;;;;;;4792928;29;20054;-85
2021/10/16 09:49:14;;;;;;;5.05;1.67;;;;;;;;;;4798092;29;20042;-85
2021/10/16 09:55:13;;;;;;;;;;;;;;;;;;4836716;29;20053;-84
2021/10/16 09:58:13;;;;;;;9.55;1.88;;;;;;;;;;4832622;29;19925;-84
2021/10/16 10:00:43;;;;;;;9.60;2.33;;;;;;;;;;4824018;29;20119;-83
2021/10/16 10:03:13;;;;;;;13.55;2.30;;;;;;;;;;4867358;29;20055;-83
2021/10/16 10:06:21;;;;;;;5.97;2.08;;;;;;;;;;4884247;29;20215;-83
2021/10/16 10:08:50;;;;;;;7.32;2.10;;;;;;;;;;4879398;29;20060;-87
2021/10/16 10:11:53;;;;;;;9.20;1.95;;;;;;;;;;4878480;29;20325;-84
2021/10/16 10:21:12;;;;;;;10.35;1.75;;;;;;;;;;4878462;29;20193;-84
2021/10/16 10:23:59;;;;;;;7.25;2.13;;;;;;;;;;4864822;29;20053;-84
2021/10/16 10:26:54;;;;;;;13.10;2.33;;;;;;;;;;4864280;29;20492;-83
2021/10/16 10:33:59;;;;;;;12.40;1.80;;;;;;;;;;4875741;29;20057;-82
2021/10/16 10:37:01;;;;;;;8.25;2.50;;;;;;;;;;4963274;28;20054;-82
2021/10/16 10:40:02;;;;;;;5.78;1.90;;;;;;;;;;4964049;28;20092;-82
2021/10/16 10:43:02;;;;;;;10.55;1.85;;;;;;;;;;4940434;28;20045;-82
2021/10/16 10:49:13;;;;;;;9.13;1.70;;;;;;;;;;4969312;28;20226;-82
2021/10/16 10:52:31;;;;;;;15.38;2.03;;;;;;;;;;4970001;28;20062;-82
2021/10/16 10:55:23;;;;;;;8.52;1.80;;;;;;;;;;4922575;28;20713;-82
2021/10/16 11:05:02;;;;;;;8.73;1.80;;;;;;;;;;5000348;28;20429;-82
2021/10/16 11:08:35;;;;;;;7.53;1.95;;;;;;;;;;5004500;28;20060;-82
2021/10/16 11:11:36;;;;;;;6.65;1.70;;;;;;;;;;5006721;28;20062;-82
2021/10/16 11:14:47;;;;;;;9.73;2.03;;;;;;;;;;4993136;28;20069;-83
2021/10/16 11:17:48;;;;;;;8.25;2.30;;;;;;;;;;4995721;28;20054;-82
2021/10/16 11:20:41;;;;;;;5.53;1.65;;;;;;;;;;4959134;28;20262;-82
2021/10/16 11:23:46;;;;;;;7.28;2.40;;;;;;;;;;4968531;28;20114;-83
2021/10/16 11:27:04;;;;;;;10.15;1.83;;;;;;;;;;4951392;28;20069;-83
2021/10/16 11:30:02;;;;;;;5.65;1.67;;;;;;;;;;5004004;28;20052;-81
2021/10/16 11:33:03;;;;;;;11.50;2.00;;;;;;;;;;5053233;28;20056;-82
2021/10/16 11:35:56;;;;;;;8.43;2.00;;;;;;;;;;5033192;28;20433;-82
2021/10/16 11:38:52;;;;;;;9.18;1.92;;;;;;;;;;5047193;28;20045;-82
2021/10/16 11:45:07;;;;;;;4.95;1.83;;;;;;;;;;4965944;28;20105;-83
2021/10/16 11:48:08;;;;;;;13.95;2.58;;;;;;;;;;4971771;28;20055;-82
2021/10/16 11:51:28;;;;;;;9.65;2.67;;;;;;;;;;4987942;28;20037;-83
2021/10/16 11:54:33;;;;;;;8.88;1.95;;;;;;;;;;5004883;28;20064;-83
2021/10/16 11:58:05;;;;;;;7.07;1.88;;;;;;;;;;4992308;28;20133;-83
2021/10/16 12:00:56;;;;;;;6.97;1.80;;;;;;;;;;4983378;28;20147;-83
2021/10/16 12:04:00;;;;;;;11.90;2.17;;;;;;;;;;4959824;28;20167;-82
2021/10/16 12:06:55;;;;;;;;;;;;;;;;;;;;;
2021/10/16 12:10:17;;;;;;;9.25;2.17;;;;;;;;;;4980249;28;20057;-83
2021/10/16 12:13:45;;;;;;;7.22;1.90;;;;;;;;;;4957403;28;20089;-83
2021/10/16 12:20:28;;;;;;;7.45;1.70;;;;;;;;;;5030369;28;20183;-85
2021/10/16 12:27:04;;;;;;;6.50;1.50;;;;;;;;;;5045928;28;20283;-83
2021/10/16 12:46:42;;;;;;;10.65;1.75;;;;;;;;;;5038343;28;19932;-82
2021/10/16 12:50:03;;;;;;;7.72;1.88;;;;;;;;;;5041012;28;20057;-82
2021/10/16 12:56:23;;;;;;;5.43;1.13;;;;;;;;;;5034378;28;20102;-82
2021/10/16 12:59:15;;;;;;;8.63;1.83;;;;;;;;;;5047852;28;20362;-82
2021/10/16 13:02:01;;;;;;;8.27;1.63;;;;;;;;;;5037457;28;20049;-82
2021/10/16 13:04:57;;;;;;;;;;;;;;;;;;;;;
2021/10/16 13:11:31;;;;;;;7.47;1.90;;;;;;;;;;5040132;28;20229;-82
2021/10/16 13:14:58;;;;;;;10.73;1.67;;;;;;;;;;5025378;28;20326;-82
2021/10/16 13:27:43;;;;;;;12.55;1.80;;;;;;;;;;5045535;28;20052;-82
2021/10/16 13:30:32;;;;;;;6.15;1.40;;;;;;;;;;5035157;28;20076;-82
2021/10/16 13:33:22;;;;;;;6.57;1.48;;;;;;;;;;5043607;28;20049;-83
2021/10/16 13:40:17;;;;;;;8.27;1.83;;;;;;;;;;5061349;28;20240;-83
2021/10/16 13:43:20;;;;;;;7.93;1.52;;;;;;;;;;5044596;28;20044;-83
2021/10/16 13:46:01;;;;;;;10.68;2.13;;;;;;;;;;5046384;28;20048;-82
2021/10/16 13:48:33;;;;;;;8.65;1.63;;;;;;;;;;5061996;28;20049;-82
2021/10/16 13:51:30;;;;;;;10.80;1.92;;;;;;;;;;5040926;28;20356;-83
2021/10/16 13:54:48;;;;;;;4.40;1.48;;;;;;;;;;5049460;28;20057;-82
2021/10/16 13:57:46;;;;;;;7.43;1.40;;;;;;;;;;5054408;28;20433;-82
2021/10/16 14:00:51;;;;;;;10.18;1.67;;;;;;;;;;5047596;28;20051;-83
2021/10/16 14:03:56;;;;;;;7.63;1.73;;;;;;;;;;5051224;28;20384;-83
2021/10/16 14:07:13;;;;;;;9.70;2.42;;;;;;;;;;5047207;28;20121;-83
2021/10/16 14:09:50;;;;;;;12.07;2.03;;;;;;;;;;5067074;28;20564;-83
2021/10/16 14:12:39;;;;;;;6.55;1.88;;;;;;;;;;5066799;28;20207;-83
2021/10/16 14:18:50;;;;;;;12.95;2.35;;;;;;;;;;5059477;28;20059;-83
2021/10/16 14:22:13;;;;;;;7.70;1.65;;;;;;;;;;5056441;28;20037;-82
2021/10/16 14:25:01;;;;;;;8.68;1.95;;;;;;;;;;4996013;28;20262;-82
2021/10/16 14:28:38;;;;;;;9.68;1.90;;;;;;;;;;5052991;28;20049;-82
2021/10/16 14:34:28;;;;;;;7.35;1.85;;;;;;;;;;4967446;28;20144;-82
2021/10/16 14:40:29;;;;;;;9.60;2.07;;;;;;;;;;5050574;28;20059;-83
2021/10/16 14:42:56;;;;;;;7.13;1.60;;;;;;;;;;5050813;28;20056;-82
2021/10/16 14:45:25;;;;;;;8.98;2.00;;;;;;;;;;5049694;28;20313;-82
2021/10/16 14:47:57;;;;;;;7.60;1.58;;;;;;;;;;5050338;28;20082;-82
2021/10/16 14:50:24;;;;;;;6.88;1.52;;;;;;;;;;5057703;28;20416;-82
2021/10/16 14:52:51;;;;;;;9.63;1.92;;;;;;;;;;5061429;28;20063;-82
2021/10/16 14:55:18;;;;;;;9.30;2.28;;;;;;;;;;5077608;28;20088;-82
2021/10/16 14:57:47;;;;;;;7.30;1.83;;;;;;;;;;5075360;28;20075;-82
2021/10/16 15:00:14;;;;;;;11.25;3.03;;;;;;;;;;5082685;28;20431;-82
2021/10/16 15:03:32;;;;;;;8.05;1.63;;;;;;;;;;5049411;28;20297;-82
2021/10/16 15:06:31;;;;;;;9.53;1.87;;;;;;;;;;5058251;28;20436;-82
2021/10/16 15:09:36;;;;;;;10.85;1.60;;;;;;;;;;5075975;28;20085;-82
2021/10/16 15:12:31;;;;;;;6.95;1.80;;;;;;;;;;5047356;28;20389;-83
2021/10/16 15:18:54;;;;;;;6.80;1.55;;;;;;;;;;5060922;28;20186;-83
2021/10/16 15:21:58;;;;;;;10.77;1.52;;;;;;;;;;5040367;28;20509;-83
2021/10/16 15:25:30;;;;;;;5.97;1.45;;;;;;;;;;5073735;28;20141;-83
2021/10/16 15:34:59;;;;;;;5.15;1.08;;;;;;;;;;5066611;28;20052;-82
2021/10/16 15:37:52;;;;;;;;;;;;;;;;;;;;;
2021/10/16 15:41:13;;;;;;;;;;;;;;;;;;;;;
2021/10/16 15:43:59;;;;;;;7.32;2.17;;;;;;;;;;5066443;28;20162;-83
2021/10/16 15:50:19;;;;;;;;;;;;;;;;;;;;;
2021/10/16 15:53:17;;;;;;;10.57;1.77;;;;;;;;;;5075523;28;20056;-84
2021/10/16 15:56:20;;;;;;;;;;;;;;;;;;;;;
2021/10/16 15:59:36;;;;;;;10.10;1.70;;;;;;;;;;5084179;28;19946;-82
2021/10/16 16:02:21;;;;;;;8.95;1.52;;;;;;;;;;5073738;28;20036;-81
2021/10/16 16:05:07;;;;;;;8.18;1.90;;;;;;;;;;5074510;28;20062;-82
2021/10/16 16:11:30;;;;;;;6.03;1.95;;;;;;;;;;5063478;28;20115;-86
2021/10/16 16:14:24;;;;;;;6.00;1.83;;;;;;;;;;5086152;28;20250;-82
2021/10/16 16:20:38;;;;;;;;;;;;;;;;;;5081971;28;20044;-81
2021/10/16 16:23:31;;;;;;;14.05;1.75;;;;;;;;;;5082847;28;20145;-82
2021/10/16 16:26:14;;;;;;;9.75;2.35;;;;;;;;;;5058550;28;20414;-82
2021/10/16 16:29:14;;;;;;;13.27;2.25;;;;;;;;;;5063587;28;20078;-82
2021/10/16 16:32:24;;;;;;;10.70;2.25;;;;;;;;;;5066809;28;20044;-82
2021/10/16 16:35:14;;;;;;;11.15;2.33;;;;;;;;;;5058924;28;20232;-82
2021/10/16 16:41:17;;;;;;;12.55;2.75;;;;;;;;;;5082352;28;20052;-82
2021/10/16 16:44:10;;;;;;;12.60;2.70;;;;;;;;;;5062743;28;20357;-82
2021/10/16 16:54:01;;;;;;;6.68;2.00;;;;;;;;;;5084449;28;20052;-82
2021/10/16 16:56:38;;;;;;;9.80;2.30;;;;;;;;;;5038730;28;20408;-82
2021/10/16 16:59:35;;;;;;;12.47;2.63;;;;;;;;;;5039166;28;20065;-82
2021/10/16 17:02:20;;;;;;;15.05;2.95;;;;;;;;;;5044610;28;20136;-84
2021/10/16 17:05:20;;;;;;;11.15;3.83;;;;;;;;;;5045465;28;20413;-83
2021/10/16 17:08:17;;;;;;;7.43;2.40;;;;;;;;;;5028208;28;20116;-82
2021/10/16 17:11:25;;;;;;;8.95;2.58;;;;;;;;;;5019977;28;20072;-83
2021/10/16 17:14:16;;;;;;;;;;;;;;;;;;5036990;28;20067;-82
2021/10/16 17:17:06;;;;;;;14.25;2.22;;;;;;;;;;5026509;28;19921;-82
2021/10/16 17:19:59;;;;;;;8.80;2.65;;;;;;;;;;5010336;28;20061;-82
2021/10/16 17:26:16;;;;;;;14.32;2.25;;;;;;;;;;5078170;28;20459;-83
2021/10/16 17:29:05;;;;;;;11.68;2.13;;;;;;;;;;5055713;28;20116;-81
2021/10/16 17:31:52;;;;;;;13.80;2.40;;;;;;;;;;5061458;28;20439;-81
2021/10/16 17:34:55;;;;;;;11.02;2.15;;;;;;;;;;5062102;28;20347;-82
2021/10/16 17:38:03;;;;;;;6.80;2.17;;;;;;;;;;5090399;28;20048;-82
2021/10/16 17:44:27;;;;;;;10.90;2.47;;;;;;;;;;5089657;28;19920;-81
2021/10/16 17:47:23;;;;;;;10.15;2.20;;;;;;;;;;5092733;28;20048;-82
2021/10/16 17:50:28;;;;;;;14.18;2.58;;;;;;;;;;5072189;28;20452;-82
2021/10/16 17:53:30;;;;;;;9.23;2.80;;;;;;;;;;5092351;28;20056;-82
2021/10/16 18:02:41;;;;;;;18.35;2.60;;;;;;;;;;5078511;28;20475;-82
2021/10/16 18:05:46;;;;;;;;;;;;;;;;;;;;;
2021/10/16 18:08:22;;;;;;;9.48;2.63;;;;;;;;;;5078237;28;20064;-80
2021/10/16 18:11:18;;;;;;;8.60;2.35;;;;;;;;;;5060817;28;20130;-82
2021/10/16 18:14:28;;;;;;;10.02;2.25;;;;;;;;;;5072255;28;20043;-81
2021/10/16 18:17:00;;;;;;;9.70;2.50;;;;;;;;;;5088153;28;20534;-83
2021/10/16 18:19:55;;;;;;;13.55;2.25;;;;;;;;;;5088196;28;20116;-83
2021/10/16 18:22:46;;;;;;;12.95;2.63;;;;;;;;;;5082032;28;20071;-82
2021/10/16 18:29:17;;;;;;;10.95;2.55;;;;;;;;;;5086666;28;20035;-82
2021/10/16 18:32:17;;;;;;;11.23;2.80;;;;;;;;;;5057615;28;20055;-81
2021/10/16 18:35:15;;;;;;;14.27;2.30;;;;;;;;;;5003746;28;20213;-83
2021/10/16 18:38:04;;;;;;;10.32;2.60;;;;;;;;;;4993738;28;20042;-83
2021/10/16 18:40:59;;;;;;;15.55;3.53;;;;;;;;;;5006463;28;20126;-83
2021/10/16 18:43:51;;;;;;;15.02;2.97;;;;;;;;;;4992434;28;20042;-83
2021/10/16 18:50:04;;;;;;;14.98;2.55;;;;;;;;;;5001477;28;20286;-83
2021/10/16 18:53:27;;;;;;;13.45;3.20;;;;;;;;;;5000236;28;20096;-83
2021/10/16 18:56:06;;;;;;;9.85;2.53;;;;;;;;;;4993273;28;20076;-82
2021/10/16 19:02:27;;;;;;;16.27;2.80;;;;;;;;;;5004592;28;20080;-83
2021/10/16 19:05:40;;;;;;;14.80;2.92;;;;;;;;;;4994655;28;20457;-82
2021/10/16 19:11:46;;;;;;;10.25;3.15;;;;;;;;;;5022865;28;20079;-82
2021/10/16 19:14:25;;;;;;;9.98;3.15;;;;;;;;;;5062694;28;20098;-83
2021/10/16 19:17:17;;;;;;;14.27;2.70;;;;;;;;;;5071678;28;20053;-82
2021/10/16 19:19:54;;;;;;;12.18;3.33;;;;;;;;;;5096223;28;20055;-82
2021/10/16 19:22:38;;;;;;;12.82;3.85;;;;;;;;;;5104401;28;20035;-81
2021/10/16 19:25:53;;;;;;;;;;;;;;;;;;;;;
2021/10/16 19:28:25;;;;;;;14.15;2.80;;;;;;;;;;5083483;28;20055;-81
2021/10/16 19:30:57;;;;;;;12.05;3.15;;;;;;;;;;5074318;28;20043;-82
2021/10/16 19:33:33;;;;;;;11.25;2.90;;;;;;;;;;5085012;28;20039;-82
2021/10/16 19:36:15;;;;;;;14.77;3.65;;;;;;;;;;5110588;28;20060;-81
2021/10/16 19:38:44;;;;;;;10.85;2.60;;;;;;;;;;5066770;28;20501;-82
2021/10/16 19:41:14;;;;;;;11.35;2.53;;;;;;;;;;5092816;28;20075;-82